Página principal
METAR-TAF:

METAR-TAF

Aeroportos :

Omsk, Rússia

latitude: 54-58N, longitude: 073-18E, altura: 122 m

Observação actual do tempo

O boletim foi feito há 20 minutos, às 02:30 UTC
Vento 4 kt de oes-sudoeste
Temperatura 7°C
Humidade 66%
Pressão 1015 hPa
Visibilidade 10 km ou mais
Nuvens dispersasa uma altura de 3300 ft

METAR: UNOO 230230Z 24002MPS 9999 SCT033 07/01 Q1015 R25/CLRD60 NOSIG RMK QFE753

Hora: 08:50 (02:50 UTC)

Previsão

O boletim foi feito há 1 hora e 10 minutos, às 01:40 UTC
Previsão válida de 23 às 03 UTC a 24 às 03 UTC
Vento 10 kt de oeste com rajadas de 25 kt
Visibilidade: 6000 m
Nuvens fragmentadasa uma altura de 3000 ft, Cumulonimbus.
Tornando-se
de 23 às 10 UTC a 23 às 12 UTC
Vento 12 kt de su-sudoeste com rajadas de 25 kt

TAF: UNOO 230140Z 2303/2403 26005G13MPS 6000 BKN030CB BECMG 2310/2312 20006G13MPS

Observações e previsões do tempo de mais de 4000 aeroportos (mensagens METAR e TAF).

As estações disponíveis são os pontos amarelos e vermelhos sobre o mapa.

Mova o rato sobre o mapa para ver o nome da estação.

Depois clique no ponto para visualizar as observações e previsões meteorológicas.

Para alterar o mapa : clique nos botões verdes com uma cruz preta para aumentar o zoom; no botão verde com uma pitada de zoom; ou nas setas verdes para mapas adjacentes.


METAR-TAF: